Time;durP1;ratioP1;P1;durP2;ratioP2;P2;SDS_P1;SDS_P2;PMS_P1;PMS_P2;Temp;Humidity;BMP_temperature;BMP_pressure;BME280_temperature;BME280_humidity;BME280_pressure;Samples;Min_cycle;Max_cycle;Signal;HPM_P1;HPM_P2
2022/01/01 00:01:21;;;;;;;21.30;7.67;;;;;;;;;;4965177;28;20031;-75
2022/01/01 00:03:47;;;;;;;20.50;8.57;;;;;;;;;;4954540;29;20040;-76
2022/01/01 00:06:13;;;;;;;18.80;9.13;;;;;;;;;;4968187;28;20055;-76
2022/01/01 00:08:39;;;;;;;17.47;7.73;;;;;;;;;;4972408;28;20019;-75
2022/01/01 00:11:05;;;;;;;19.07;9.30;;;;;;;;;;4956968;29;20066;-76
2022/01/01 00:13:31;;;;;;;18.73;8.13;;;;;;;;;;4961460;28;20137;-76
2022/01/01 00:15:57;;;;;;;20.27;7.40;;;;;;;;;;4967323;28;20016;-76
2022/01/01 00:18:24;;;;;;;18.00;7.57;;;;;;;;;;4957378;29;20028;-76
2022/01/01 00:20:50;;;;;;;16.53;7.50;;;;;;;;;;4954291;29;20051;-75
2022/01/01 00:23:16;;;;;;;18.53;7.57;;;;;;;;;;4960436;29;20031;-78
2022/01/01 00:25:42;;;;;;;19.80;6.27;;;;;;;;;;4969508;28;20040;-77
2022/01/01 00:28:08;;;;;;;13.30;5.97;;;;;;;;;;4968174;28;20050;-76
2022/01/01 00:30:34;;;;;;;13.23;5.10;;;;;;;;;;4957165;28;20019;-75
2022/01/01 00:33:00;;;;;;;13.80;4.93;;;;;;;;;;4956117;28;20027;-77
2022/01/01 00:35:26;;;;;;;19.73;4.97;;;;;;;;;;4957782;28;20024;-76
2022/01/01 00:37:52;;;;;;;8.03;5.40;;;;;;;;;;4957432;29;20040;-76
2022/01/01 00:40:19;;;;;;;11.57;5.07;;;;;;;;;;4956014;28;20027;-78
2022/01/01 00:42:45;;;;;;;10.60;4.57;;;;;;;;;;4958931;28;20031;-75
2022/01/01 00:45:11;;;;;;;10.20;4.60;;;;;;;;;;4959868;28;20023;-77
2022/01/01 00:47:37;;;;;;;13.90;4.83;;;;;;;;;;4958362;29;20031;-77
2022/01/01 00:50:05;;;;;;;9.30;4.43;;;;;;;;;;4959354;28;20054;-76
2022/01/01 00:52:31;;;;;;;11.13;5.23;;;;;;;;;;4958839;28;20044;-75
2022/01/01 00:54:57;;;;;;;10.83;5.17;;;;;;;;;;4970298;28;20031;-75
2022/01/01 00:57:23;;;;;;;8.17;4.70;;;;;;;;;;4956856;28;20024;-75
2022/01/01 00:59:49;;;;;;;12.37;4.67;;;;;;;;;;4956839;28;20040;-76
2022/01/01 01:02:15;;;;;;;11.00;4.63;;;;;;;;;;4957229;28;20051;-76
2022/01/01 01:04:41;;;;;;;12.20;5.23;;;;;;;;;;4967148;28;20059;-78
2022/01/01 01:07:08;;;;;;;9.67;3.97;;;;;;;;;;4956963;28;20020;-76
2022/01/01 01:09:34;;;;;;;12.07;5.30;;;;;;;;;;4972322;28;20043;-76
2022/01/01 01:12:00;;;;;;;13.40;4.57;;;;;;;;;;4957420;28;20050;-76
2022/01/01 01:14:27;;;;;;;17.43;4.67;;;;;;;;;;4955810;28;20028;-76
2022/01/01 01:16:55;;;;;;;13.23;5.50;;;;;;;;;;4976296;28;20084;-75
2022/01/01 01:19:21;;;;;;;12.10;4.63;;;;;;;;;;4956542;28;20035;-76
2022/01/01 01:21:48;;;;;;;8.83;4.27;;;;;;;;;;4955329;29;20023;-76
2022/01/01 01:24:15;;;;;;;13.33;5.73;;;;;;;;;;4954975;29;20023;-76
2022/01/01 01:26:49;;;;;;;9.00;4.40;;;;;;;;;;4965943;28;20036;-76
2022/01/01 01:29:15;;;;;;;8.33;4.20;;;;;;;;;;4948643;29;20109;-76
2022/01/01 01:31:41;;;;;;;9.17;3.60;;;;;;;;;;4941367;29;20043;-76
2022/01/01 01:34:07;;;;;;;12.53;4.80;;;;;;;;;;4956143;28;20333;-76
2022/01/01 01:36:34;;;;;;;9.33;3.90;;;;;;;;;;4954479;28;20042;-76
2022/01/01 01:39:00;;;;;;;14.80;3.90;;;;;;;;;;4945321;29;20028;-76
2022/01/01 01:41:29;;;;;;;8.37;3.57;;;;;;;;;;4948421;29;20047;-77
2022/01/01 01:43:57;;;;;;;11.07;4.63;;;;;;;;;;4945619;29;20123;-76
2022/01/01 01:46:23;;;;;;;13.43;4.57;;;;;;;;;;4949684;29;20031;-76
2022/01/01 01:48:49;;;;;;;13.27;4.60;;;;;;;;;;4948241;29;20031;-76
2022/01/01 01:51:16;;;;;;;16.87;5.50;;;;;;;;;;4956959;28;20118;-76
2022/01/01 01:53:42;;;;;;;12.80;4.47;;;;;;;;;;4942529;29;20081;-76
2022/01/01 01:56:08;;;;;;;9.33;3.67;;;;;;;;;;4937000;29;20095;-77
2022/01/01 01:58:34;;;;;;;9.50;3.87;;;;;;;;;;4939183;29;20034;-76
2022/01/01 02:03:26;;;;;;;9.17;4.23;;;;;;;;;;4938326;29;20043;-76
2022/01/01 02:05:53;;;;;;;14.17;5.37;;;;;;;;;;4940703;28;20091;-76
2022/01/01 02:08:20;;;;;;;10.00;4.73;;;;;;;;;;4943593;29;20043;-75
2022/01/01 02:10:51;;;;;;;10.10;4.43;;;;;;;;;;4946814;29;20911;-76
2022/01/01 02:13:24;;;;;;;12.77;4.70;;;;;;;;;;4944668;29;20028;-76
2022/01/01 02:18:16;;;;;;;9.13;4.60;;;;;;;;;;4941617;29;20422;-76
2022/01/01 02:20:49;;;;;;;13.50;4.70;;;;;;;;;;4939811;29;20035;-75
2022/01/01 02:23:15;;;;;;;9.45;4.63;;;;;;;;;;4965157;28;20213;-77
2022/01/01 02:25:41;;;;;;;12.30;4.60;;;;;;;;;;4957048;28;20524;-77
2022/01/01 02:28:07;;;;;;;13.70;5.00;;;;;;;;;;4939174;29;20046;-76
2022/01/01 02:30:33;;;;;;;12.07;4.93;;;;;;;;;;4963928;28;20050;-76
2022/01/01 02:32:59;;;;;;;15.77;4.80;;;;;;;;;;4966661;28;20103;-75
2022/01/01 02:35:25;;;;;;;13.10;5.30;;;;;;;;;;4949483;29;20094;-77
2022/01/01 02:37:51;;;;;;;11.43;4.93;;;;;;;;;;4944678;29;20035;-76
2022/01/01 02:40:17;;;;;;;13.07;5.17;;;;;;;;;;4946042;29;20036;-77
2022/01/01 02:42:43;;;;;;;14.57;6.13;;;;;;;;;;4943491;29;20492;-76
2022/01/01 02:45:11;;;;;;;10.23;4.90;;;;;;;;;;4941853;29;20064;-76
2022/01/01 02:47:37;;;;;;;9.37;4.90;;;;;;;;;;4941554;29;20302;-76
2022/01/01 02:50:04;;;;;;;15.53;5.17;;;;;;;;;;4937601;29;20234;-77
2022/01/01 02:52:30;;;;;;;11.47;5.23;;;;;;;;;;4945574;29;20031;-76
2022/01/01 02:54:56;;;;;;;11.33;5.00;;;;;;;;;;4962341;28;20024;-76
2022/01/01 02:57:22;;;;;;;16.23;5.50;;;;;;;;;;4943697;29;20063;-77
2022/01/01 02:59:48;;;;;;;9.57;4.50;;;;;;;;;;4951198;29;20019;-76
2022/01/01 03:02:15;;;;;;;12.23;4.70;;;;;;;;;;4958215;28;20031;-76
2022/01/01 03:04:41;;;;;;;8.97;4.27;;;;;;;;;;4946545;29;20031;-76
2022/01/01 03:07:07;;;;;;;13.43;4.70;;;;;;;;;;4951762;29;20042;-75
2022/01/01 03:09:36;;;;;;;7.87;3.60;;;;;;;;;;4969985;28;20023;-76
2022/01/01 03:12:04;;;;;;;10.57;4.83;;;;;;;;;;4952971;29;20063;-75
2022/01/01 03:14:30;;;;;;;9.60;3.80;;;;;;;;;;4955984;28;20022;-76
2022/01/01 03:16:56;;;;;;;12.73;4.17;;;;;;;;;;4954163;28;20042;-75
2022/01/01 03:19:22;;;;;;;8.10;5.00;;;;;;;;;;4954674;28;20023;-74
2022/01/01 03:21:48;;;;;;;11.17;3.40;;;;;;;;;;4956490;28;20047;-76
2022/01/01 03:24:15;;;;;;;11.60;3.50;;;;;;;;;;4965216;28;20538;-76
2022/01/01 03:26:41;;;;;;;9.93;4.40;;;;;;;;;;4969506;28;20055;-75
2022/01/01 03:29:07;;;;;;;11.50;3.50;;;;;;;;;;4954967;29;20634;-75
2022/01/01 03:31:33;;;;;;;9.13;3.33;;;;;;;;;;4954637;29;20260;-74
2022/01/01 03:34:00;;;;;;;14.53;3.07;;;;;;;;;;4953216;29;20044;-76
2022/01/01 03:36:26;;;;;;;13.63;3.60;;;;;;;;;;4966515;28;20012;-75
2022/01/01 03:38:52;;;;;;;6.20;3.37;;;;;;;;;;4953778;29;20043;-75
2022/01/01 03:41:18;;;;;;;7.93;3.17;;;;;;;;;;4954193;29;20031;-78
2022/01/01 03:43:45;;;;;;;7.73;3.30;;;;;;;;;;4957204;29;20032;-75
2022/01/01 03:46:11;;;;;;;4.73;2.47;;;;;;;;;;4952552;29;20477;-74
2022/01/01 03:48:37;;;;;;;7.67;3.27;;;;;;;;;;4953415;29;20039;-75
2022/01/01 03:51:03;;;;;;;6.00;3.20;;;;;;;;;;4951428;29;20051;-76
2022/01/01 03:53:32;;;;;;;11.73;3.10;;;;;;;;;;4949312;29;20036;-75
2022/01/01 03:55:59;;;;;;;6.50;2.50;;;;;;;;;;4965615;28;20024;-75
2022/01/01 03:58:25;;;;;;;8.33;2.90;;;;;;;;;;4951010;28;20082;-75
2022/01/01 04:00:51;;;;;;;8.73;2.73;;;;;;;;;;4953602;28;20031;-75
2022/01/01 04:03:17;;;;;;;7.67;2.40;;;;;;;;;;4956390;29;20516;-75
2022/01/01 04:05:44;;;;;;;8.17;2.50;;;;;;;;;;4957587;29;20033;-76
2022/01/01 04:08:11;;;;;;;9.37;2.60;;;;;;;;;;4964265;29;20043;-76
2022/01/01 04:10:37;;;;;;;5.33;2.30;;;;;;;;;;4957436;29;20023;-76
2022/01/01 04:13:04;;;;;;;4.60;1.93;;;;;;;;;;4959521;29;20028;-75
2022/01/01 04:15:31;;;;;;;5.17;2.27;;;;;;;;;;4959063;28;20035;-74
2022/01/01 04:18:01;;;;;;;10.43;2.17;;;;;;;;;;4958916;28;20040;-75
2022/01/01 04:20:27;;;;;;;7.03;2.60;;;;;;;;;;4972295;28;20035;-74
2022/01/01 04:22:54;;;;;;;9.23;2.23;;;;;;;;;;4959670;29;20032;-76
2022/01/01 04:25:21;;;;;;;6.07;2.00;;;;;;;;;;4958931;29;20042;-75
2022/01/01 04:27:48;;;;;;;8.53;2.57;;;;;;;;;;4975988;28;20044;-75
2022/01/01 04:30:14;;;;;;;8.63;2.20;;;;;;;;;;4960826;29;20083;-75
2022/01/01 04:32:40;;;;;;;2.70;1.93;;;;;;;;;;4957531;29;20060;-76
2022/01/01 04:35:07;;;;;;;5.43;1.97;;;;;;;;;;4960078;29;20095;-74
2022/01/01 04:37:33;;;;;;;7.23;1.63;;;;;;;;;;4956366;29;20035;-74
2022/01/01 04:39:59;;;;;;;3.23;1.77;;;;;;;;;;4959241;29;20020;-75
2022/01/01 04:42:30;;;;;;;4.50;2.17;;;;;;;;;;4957278;29;20019;-74
2022/01/01 04:44:56;;;;;;;7.77;2.60;;;;;;;;;;4958812;29;20052;-74
2022/01/01 04:47:22;;;;;;;10.43;2.93;;;;;;;;;;4961169;29;20046;-74
2022/01/01 04:49:48;;;;;;;5.27;1.77;;;;;;;;;;4956830;29;20024;-75
2022/01/01 04:52:14;;;;;;;7.57;1.80;;;;;;;;;;4957203;28;20044;-75
2022/01/01 04:54:42;;;;;;;5.03;1.70;;;;;;;;;;4973781;28;20035;-75
2022/01/01 04:57:08;;;;;;;6.90;1.60;;;;;;;;;;4957014;29;20027;-75
2022/01/01 04:59:38;;;;;;;4.83;1.50;;;;;;;;;;4959056;29;20055;-74
2022/01/01 05:02:04;;;;;;;5.47;1.50;;;;;;;;;;4960130;29;20055;-75
2022/01/01 05:04:30;;;;;;;4.83;1.83;;;;;;;;;;4961628;29;20042;-75
2022/01/01 05:06:56;;;;;;;9.43;1.87;;;;;;;;;;4960339;28;20099;-74
2022/01/01 05:09:23;;;;;;;2.37;1.50;;;;;;;;;;4960466;29;20046;-75
2022/01/01 05:11:49;;;;;;;5.00;2.07;;;;;;;;;;4956233;29;20050;-75
2022/01/01 05:14:15;;;;;;;3.27;1.63;;;;;;;;;;4958595;29;20027;-75
2022/01/01 05:16:42;;;;;;;4.50;1.67;;;;;;;;;;4951858;29;20027;-75
2022/01/01 05:19:08;;;;;;;4.50;2.03;;;;;;;;;;4973739;28;20024;-75
2022/01/01 05:21:36;;;;;;;12.17;2.20;;;;;;;;;;4955478;29;20016;-74
2022/01/01 05:24:03;;;;;;;3.73;1.27;;;;;;;;;;4957722;29;20065;-74
2022/01/01 05:26:29;;;;;;;6.90;2.03;;;;;;;;;;4953721;29;20115;-74
2022/01/01 05:28:55;;;;;;;8.47;2.10;;;;;;;;;;4950342;29;20031;-77
2022/01/01 05:31:21;;;;;;;2.90;1.60;;;;;;;;;;4954246;29;20047;-76
2022/01/01 05:33:48;;;;;;;4.63;1.73;;;;;;;;;;4951250;29;20063;-75
2022/01/01 05:36:14;;;;;;;4.17;1.83;;;;;;;;;;4958156;29;20047;-76
2022/01/01 05:38:44;;;;;;;7.50;2.30;;;;;;;;;;4958633;29;20028;-75
2022/01/01 05:41:10;;;;;;;6.20;1.53;;;;;;;;;;4952784;29;20028;-76
2022/01/01 05:43:36;;;;;;;6.33;1.50;;;;;;;;;;4968727;28;20054;-75
2022/01/01 05:46:03;;;;;;;6.53;1.30;;;;;;;;;;4955268;29;20023;-75
2022/01/01 05:48:29;;;;;;;4.10;1.67;;;;;;;;;;4950913;29;20031;-74
2022/01/01 05:50:55;;;;;;;4.63;1.63;;;;;;;;;;4958188;29;20092;-75
2022/01/01 05:53:21;;;;;;;4.13;1.43;;;;;;;;;;4957648;29;20051;-75
2022/01/01 05:55:48;;;;;;;4.03;1.83;;;;;;;;;;4959591;29;20091;-75
2022/01/01 05:58:14;;;;;;;5.67;1.57;;;;;;;;;;4960228;29;20031;-75
2022/01/01 06:00:40;;;;;;;9.10;1.43;;;;;;;;;;4956562;29;20037;-75
2022/01/01 06:03:06;;;;;;;4.27;1.73;;;;;;;;;;4958370;28;20095;-75
2022/01/01 06:05:32;;;;;;;4.67;1.60;;;;;;;;;;4954595;29;20090;-74
2022/01/01 06:07:59;;;;;;;8.90;1.57;;;;;;;;;;4971287;28;20032;-75
2022/01/01 06:10:25;;;;;;;6.37;1.10;;;;;;;;;;4959048;29;20042;-75
2022/01/01 06:12:52;;;;;;;4.70;1.50;;;;;;;;;;4958618;29;20043;-75
2022/01/01 06:15:18;;;;;;;4.37;1.33;;;;;;;;;;4959258;28;20019;-75
2022/01/01 06:17:44;;;;;;;7.67;1.20;;;;;;;;;;4955270;28;20044;-74
2022/01/01 06:20:10;;;;;;;5.90;1.30;;;;;;;;;;4954184;28;20038;-74
2022/01/01 06:22:37;;;;;;;5.37;1.30;;;;;;;;;;4953717;29;20035;-75
2022/01/01 06:25:04;;;;;;;5.47;1.60;;;;;;;;;;4957467;29;20062;-74
2022/01/01 06:27:30;;;;;;;4.20;1.10;;;;;;;;;;4958827;28;20043;-74
2022/01/01 06:29:56;;;;;;;3.90;1.10;;;;;;;;;;4958914;28;20015;-75
2022/01/01 06:32:22;;;;;;;3.33;1.10;;;;;;;;;;4951829;28;20054;-74
2022/01/01 06:34:49;;;;;;;4.83;1.30;;;;;;;;;;4956017;28;20051;-74
2022/01/01 06:37:16;;;;;;;2.77;1.07;;;;;;;;;;4957936;28;20028;-74
2022/01/01 06:39:42;;;;;;;3.87;0.97;;;;;;;;;;4957824;29;20046;-76
2022/01/01 06:42:08;;;;;;;3.20;1.10;;;;;;;;;;4971904;28;20136;-76
2022/01/01 06:44:35;;;;;;;5.47;1.83;;;;;;;;;;4959683;29;20099;-77
2022/01/01 06:47:01;;;;;;;3.90;0.97;;;;;;;;;;4955404;29;20039;-75
2022/01/01 06:49:27;;;;;;;4.47;1.37;;;;;;;;;;4953353;28;20042;-74
2022/01/01 06:51:53;;;;;;;8.03;2.27;;;;;;;;;;4959500;28;20042;-75
2022/01/01 06:54:19;;;;;;;4.00;1.20;;;;;;;;;;4958376;29;20015;-75
2022/01/01 06:56:45;;;;;;;4.20;1.00;;;;;;;;;;4958497;28;20023;-75
2022/01/01 06:59:11;;;;;;;3.90;0.90;;;;;;;;;;4958357;28;20030;-75
2022/01/01 07:01:38;;;;;;;4.00;1.10;;;;;;;;;;4959648;28;20039;-74
2022/01/01 07:04:04;;;;;;;5.70;1.50;;;;;;;;;;4955950;28;20027;-74
2022/01/01 07:06:37;;;;;;;8.23;1.30;;;;;;;;;;4953524;28;20043;-75
2022/01/01 07:09:04;;;;;;;3.07;0.80;;;;;;;;;;4971264;28;20024;-75
2022/01/01 07:11:30;;;;;;;8.33;2.40;;;;;;;;;;4956337;29;20016;-75
2022/01/01 07:13:56;;;;;;;6.30;2.37;;;;;;;;;;4953468;28;20024;-74
2022/01/01 07:16:22;;;;;;;3.00;1.20;;;;;;;;;;4970552;28;20016;-76
2022/01/01 07:18:48;;;;;;;6.83;1.00;;;;;;;;;;4956326;28;20040;-75
2022/01/01 07:21:14;;;;;;;2.77;0.90;;;;;;;;;;4956441;28;20055;-74
2022/01/01 07:23:42;;;;;;;5.20;0.87;;;;;;;;;;4955673;28;20034;-75
2022/01/01 07:26:08;;;;;;;3.97;1.30;;;;;;;;;;4959903;28;20024;-74
2022/01/01 07:28:34;;;;;;;3.77;1.60;;;;;;;;;;4956132;29;20043;-75
2022/01/01 07:31:00;;;;;;;7.40;1.30;;;;;;;;;;4956488;28;20016;-75
2022/01/01 07:33:26;;;;;;;6.20;1.50;;;;;;;;;;4957593;28;20060;-74
2022/01/01 07:35:55;;;;;;;7.20;1.27;;;;;;;;;;4971037;28;20030;-75
2022/01/01 07:38:22;;;;;;;4.07;1.00;;;;;;;;;;4960432;28;20031;-74
2022/01/01 07:40:48;;;;;;;2.03;0.90;;;;;;;;;;4956383;28;20023;-74
2022/01/01 07:43:15;;;;;;;7.53;1.30;;;;;;;;;;4973725;28;20035;-76
2022/01/01 07:45:41;;;;;;;6.27;1.10;;;;;;;;;;4970439;28;20039;-76
2022/01/01 07:48:07;;;;;;;4.97;0.90;;;;;;;;;;4960467;28;20055;-74
2022/01/01 07:50:34;;;;;;;5.57;1.27;;;;;;;;;;4961494;28;20083;-75
2022/01/01 07:53:00;;;;;;;3.90;1.63;;;;;;;;;;4963307;28;20040;-74
2022/01/01 07:55:26;;;;;;;7.57;1.47;;;;;;;;;;4975114;28;20038;-75
2022/01/01 07:57:52;;;;;;;4.67;1.67;;;;;;;;;;4959168;28;20038;-74
2022/01/01 08:00:18;;;;;;;5.17;1.20;;;;;;;;;;4958495;28;20060;-74
2022/01/01 08:02:45;;;;;;;4.57;1.17;;;;;;;;;;4960649;28;20027;-75
2022/01/01 08:05:12;;;;;;;8.13;1.00;;;;;;;;;;4958492;28;20091;-74
2022/01/01 08:07:38;;;;;;;4.07;1.90;;;;;;;;;;4961125;28;20583;-75
2022/01/01 08:10:05;;;;;;;5.03;1.10;;;;;;;;;;4956067;28;20047;-75
2022/01/01 08:12:31;;;;;;;3.60;1.40;;;;;;;;;;4958054;28;21171;-74
2022/01/01 08:14:57;;;;;;;2.77;0.90;;;;;;;;;;4960945;28;20024;-75
2022/01/01 08:17:24;;;;;;;2.97;1.03;;;;;;;;;;4974861;28;20040;-75
2022/01/01 08:19:50;;;;;;;5.77;0.97;;;;;;;;;;4976351;28;20030;-75
2022/01/01 08:22:17;;;;;;;3.67;1.50;;;;;;;;;;4975395;28;20042;-75
2022/01/01 08:24:43;;;;;;;3.17;0.90;;;;;;;;;;4972346;28;20036;-75
2022/01/01 08:27:09;;;;;;;2.77;1.23;;;;;;;;;;4962749;28;20041;-73
2022/01/01 08:29:35;;;;;;;4.37;0.93;;;;;;;;;;4958025;29;20402;-74
2022/01/01 08:32:01;;;;;;;3.13;1.23;;;;;;;;;;4956667;29;20024;-74
2022/01/01 08:34:27;;;;;;;7.43;1.80;;;;;;;;;;4963110;28;20029;-76
2022/01/01 08:36:54;;;;;;;2.33;0.60;;;;;;;;;;4961288;28;20036;-76
2022/01/01 08:39:20;;;;;;;6.33;2.73;;;;;;;;;;4959786;29;20025;-77
2022/01/01 08:41:46;;;;;;;6.70;1.27;;;;;;;;;;4959683;28;20024;-77
2022/01/01 08:44:13;;;;;;;6.43;1.10;;;;;;;;;;4956821;29;20045;-79
2022/01/01 08:46:39;;;;;;;8.40;1.10;;;;;;;;;;4961339;29;20032;-73
2022/01/01 08:49:05;;;;;;;4.97;1.10;;;;;;;;;;4960697;29;20046;-74
2022/01/01 08:51:33;;;;;;;6.30;1.60;;;;;;;;;;4976445;28;20025;-77
2022/01/01 08:53:59;;;;;;;3.33;1.30;;;;;;;;;;4959455;29;20028;-74
2022/01/01 08:56:25;;;;;;;6.90;1.37;;;;;;;;;;4960968;29;20023;-75
2022/01/01 08:58:51;;;;;;;3.73;1.00;;;;;;;;;;4964579;29;20015;-75
2022/01/01 09:01:17;;;;;;;4.97;1.33;;;;;;;;;;4967112;28;20036;-74
2022/01/01 09:03:43;;;;;;;10.63;1.60;;;;;;;;;;4955702;28;20031;-77
2022/01/01 09:06:10;;;;;;;3.60;1.37;;;;;;;;;;4955359;28;20023;-77
2022/01/01 09:08:38;;;;;;;2.30;0.90;;;;;;;;;;4956286;28;20039;-77
2022/01/01 09:11:04;;;;;;;3.50;1.10;;;;;;;;;;4973195;28;20027;-73
2022/01/01 09:13:31;;;;;;;8.90;1.30;;;;;;;;;;4962112;28;20035;-76
2022/01/01 09:15:57;;;;;;;2.53;1.10;;;;;;;;;;4972901;28;20043;-77
2022/01/01 09:18:23;;;;;;;6.13;1.50;;;;;;;;;;4957018;29;20145;-78
2022/01/01 09:20:49;;;;;;;3.63;1.10;;;;;;;;;;4971700;28;20083;-77
2022/01/01 09:23:16;;;;;;;7.90;1.20;;;;;;;;;;4956077;29;20067;-77
2022/01/01 09:25:42;;;;;;;2.30;0.97;;;;;;;;;;4970077;28;20024;-77
2022/01/01 09:28:08;;;;;;;2.73;0.97;;;;;;;;;;4957936;29;20035;-75
2022/01/01 09:30:34;;;;;;;2.73;2.10;;;;;;;;;;4961851;28;20068;-75
2022/01/01 09:33:00;;;;;;;3.63;1.13;;;;;;;;;;4971250;28;20034;-76
2022/01/01 09:35:26;;;;;;;5.87;1.03;;;;;;;;;;4955861;29;20087;-74
2022/01/01 09:37:52;;;;;;;5.50;1.10;;;;;;;;;;4951770;29;20641;-76
2022/01/01 09:40:19;;;;;;;4.27;1.00;;;;;;;;;;4951207;29;20046;-75
2022/01/01 09:42:46;;;;;;;6.80;0.80;;;;;;;;;;4954597;29;20036;-75
2022/01/01 09:45:15;;;;;;;4.70;1.20;;;;;;;;;;4957613;28;20100;-76
2022/01/01 09:47:42;;;;;;;2.77;1.10;;;;;;;;;;4959539;28;20035;-75
2022/01/01 09:50:09;;;;;;;3.90;0.90;;;;;;;;;;4961994;29;20035;-75
2022/01/01 09:52:35;;;;;;;1.33;0.80;;;;;;;;;;4958826;28;20020;-74
2022/01/01 09:55:01;;;;;;;1.50;0.90;;;;;;;;;;4973379;28;20012;-75
2022/01/01 09:57:27;;;;;;;3.73;1.13;;;;;;;;;;4953535;28;20058;-75
2022/01/01 09:59:54;;;;;;;1.97;0.93;;;;;;;;;;4959863;28;20018;-74
2022/01/01 10:02:20;;;;;;;4.73;1.20;;;;;;;;;;4973446;28;20059;-75
2022/01/01 10:04:51;;;;;;;2.53;1.00;;;;;;;;;;4960253;28;20044;-75
2022/01/01 10:07:18;;;;;;;4.97;1.23;;;;;;;;;;4957962;28;20066;-75
2022/01/01 10:09:44;;;;;;;3.13;0.90;;;;;;;;;;4964937;28;20036;-76
2022/01/01 10:12:14;;;;;;;3.43;1.27;;;;;;;;;;4960355;28;20055;-76
2022/01/01 10:14:41;;;;;;;7.07;1.13;;;;;;;;;;4957581;28;20032;-75
2022/01/01 10:17:08;;;;;;;6.27;1.33;;;;;;;;;;4972114;28;20071;-78
2022/01/01 10:19:34;;;;;;;6.83;1.83;;;;;;;;;;4952229;28;20036;-75
2022/01/01 10:22:06;;;;;;;3.63;1.20;;;;;;;;;;4944740;29;20044;-77
2022/01/01 10:27:42;;;;;;;3.07;0.93;;;;;;;;;;4934893;29;20035;-76
2022/01/01 10:30:03;;;;;;;5.45;1.60;;;;;;;;;;4941233;29;20130;-76
2022/01/01 10:32:29;;;;;;;3.13;0.93;;;;;;;;;;4957877;28;20094;-75
2022/01/01 10:34:56;;;;;;;2.43;1.27;;;;;;;;;;4953082;29;20723;-74
2022/01/01 10:37:27;;;;;;;4.57;1.40;;;;;;;;;;4955113;29;20024;-76
2022/01/01 10:39:54;;;;;;;5.78;1.13;;;;;;;;;;4955574;29;20222;-79
2022/01/01 10:42:21;;;;;;;2.57;1.10;;;;;;;;;;4968185;28;20039;-77
2022/01/01 10:44:48;;;;;;;3.40;1.13;;;;;;;;;;4954915;29;20023;-76
2022/01/01 10:47:18;;;;;;;4.50;1.10;;;;;;;;;;4968469;28;21518;-78
2022/01/01 10:52:13;;;;;;;5.87;1.77;;;;;;;;;;4952436;29;20078;-75
2022/01/01 10:54:39;;;;;;;4.03;1.40;;;;;;;;;;4952680;29;20027;-81
2022/01/01 10:57:09;;;;;;;3.05;1.10;;;;;;;;;;4954897;28;20054;-80
2022/01/01 10:59:41;;;;;;;4.22;1.42;;;;;;;;;;4948700;28;20043;-78
2022/01/01 11:02:07;;;;;;;3.22;1.83;;;;;;;;;;4967228;28;20046;-74
2022/01/01 11:04:34;;;;;;;1.80;1.00;;;;;;;;;;4958909;29;20031;-81
2022/01/01 11:07:01;;;;;;;4.90;1.27;;;;;;;;;;4965294;28;20034;-79
2022/01/01 11:09:28;;;;;;;3.20;1.40;;;;;;;;;;4959744;28;20034;-78
2022/01/01 11:12:02;;;;;;;6.40;1.33;;;;;;;;;;4968314;28;20076;-75
2022/01/01 11:14:28;;;;;;;3.30;1.13;;;;;;;;;;4954437;28;20091;-75
2022/01/01 11:16:54;;;;;;;3.72;0.82;;;;;;;;;;4966102;28;20059;-77
2022/01/01 11:19:24;;;;;;;4.23;1.43;;;;;;;;;;4988812;23;20037;-75
2022/01/01 11:21:50;;;;;;;3.10;1.20;;;;;;;;;;4980957;28;20034;-75
2022/01/01 11:24:17;;;;;;;3.30;1.37;;;;;;;;;;4996009;28;20027;-75
2022/01/01 11:26:44;;;;;;;5.75;1.38;;;;;;;;;;4979574;28;20026;-75
2022/01/01 11:29:10;;;;;;;7.30;1.20;;;;;;;;;;4995948;28;20086;-75
2022/01/01 11:31:36;;;;;;;3.90;1.30;;;;;;;;;;4998757;28;20015;-76
2022/01/01 11:34:03;;;;;;;2.88;1.10;;;;;;;;;;4992123;28;20022;-74
2022/01/01 11:36:31;;;;;;;2.97;1.00;;;;;;;;;;4994088;28;20035;-76
2022/01/01 11:38:59;;;;;;;7.00;1.05;;;;;;;;;;4981699;28;20049;-75
2022/01/01 11:41:37;;;;;;;3.05;1.20;;;;;;;;;;4991500;28;20077;-75
2022/01/01 11:44:03;;;;;;;2.65;0.98;;;;;;;;;;4991215;28;20039;-75
2022/01/01 11:46:30;;;;;;;3.28;1.10;;;;;;;;;;4996767;28;20135;-75
2022/01/01 11:49:01;;;;;;;3.78;1.73;;;;;;;;;;4975832;28;20030;-75
2022/01/01 11:51:35;;;;;;;2.55;1.10;;;;;;;;;;4993722;28;20192;-75
2022/01/01 11:54:17;;;;;;;2.58;0.82;;;;;;;;;;4976678;28;20042;-76
2022/01/01 11:56:49;;;;;;;2.30;1.40;;;;;;;;;;4991483;28;20035;-77
2022/01/01 11:59:23;;;;;;;5.25;1.83;;;;;;;;;;4984385;28;20427;-76
2022/01/01 12:02:18;;;;;;;2.90;1.48;;;;;;;;;;4985119;28;20047;-77
2022/01/01 12:04:51;;;;;;;2.83;1.10;;;;;;;;;;4963730;28;20106;-76
2022/01/01 12:07:20;;;;;;;2.13;1.65;;;;;;;;;;4995737;28;20022;-76
2022/01/01 12:09:51;;;;;;;3.50;0.63;;;;;;;;;;4994353;28;20028;-75
2022/01/01 12:12:35;;;;;;;3.20;0.98;;;;;;;;;;4985775;28;20038;-76
2022/01/01 12:15:01;;;;;;;2.60;1.00;;;;;;;;;;4993313;28;20034;-76
2022/01/01 12:17:27;;;;;;;4.43;0.88;;;;;;;;;;4987244;28;20023;-76
2022/01/01 12:19:57;;;;;;;3.28;0.90;;;;;;;;;;4976328;28;20070;-73
2022/01/01 12:22:29;;;;;;;1.45;1.00;;;;;;;;;;4999862;28;20066;-73
2022/01/01 12:24:56;;;;;;;1.83;0.80;;;;;;;;;;4994160;28;20052;-73
2022/01/01 12:27:23;;;;;;;0.90;0.70;;;;;;;;;;4980772;28;20290;-73
2022/01/01 12:30:03;;;;;;;1.52;0.90;;;;;;;;;;4998285;28;20033;-73
2022/01/01 12:32:36;;;;;;;2.97;1.35;;;;;;;;;;4993438;28;20039;-73
2022/01/01 12:35:07;;;;;;;1.80;1.00;;;;;;;;;;4984212;28;20063;-75
2022/01/01 12:37:37;;;;;;;3.08;0.88;;;;;;;;;;4990064;28;20027;-74
2022/01/01 12:40:04;;;;;;;5.25;0.90;;;;;;;;;;4997478;28;20106;-73
2022/01/01 12:42:34;;;;;;;2.45;1.23;;;;;;;;;;4995373;28;20129;-75
2022/01/01 12:45:02;;;;;;;3.15;1.27;;;;;;;;;;4995840;28;20034;-74
2022/01/01 12:47:28;;;;;;;4.75;1.17;;;;;;;;;;4990318;28;20038;-74
2022/01/01 12:49:57;;;;;;;3.15;1.20;;;;;;;;;;4994772;28;20039;-75
2022/01/01 12:52:23;;;;;;;2.22;1.15;;;;;;;;;;4989554;28;20037;-76
2022/01/01 12:54:52;;;;;;;4.53;1.00;;;;;;;;;;4993803;28;20041;-74
2022/01/01 12:57:19;;;;;;;2.47;1.30;;;;;;;;;;4994409;28;20027;-78
2022/01/01 12:59:48;;;;;;;3.17;1.00;;;;;;;;;;4994488;28;20049;-78
2022/01/01 13:02:15;;;;;;;1.80;1.10;;;;;;;;;;4978707;28;20019;-78
2022/01/01 13:04:41;;;;;;;2.10;1.02;;;;;;;;;;4985092;28;20046;-75
2022/01/01 13:07:08;;;;;;;1.50;0.90;;;;;;;;;;4990968;28;20023;-75
2022/01/01 13:09:34;;;;;;;1.90;1.25;;;;;;;;;;4990685;28;20030;-75
2022/01/01 13:12:07;;;;;;;3.63;1.38;;;;;;;;;;4979195;28;20039;-76
2022/01/01 13:14:35;;;;;;;3.42;1.38;;;;;;;;;;4975501;28;20030;-76
2022/01/01 13:17:02;;;;;;;4.35;1.27;;;;;;;;;;4966259;28;20023;-76
2022/01/01 13:19:28;;;;;;;5.15;1.35;;;;;;;;;;4980790;28;20050;-77
2022/01/01 13:21:55;;;;;;;2.20;0.95;;;;;;;;;;4970017;28;20038;-76
2022/01/01 13:24:25;;;;;;;3.20;1.00;;;;;;;;;;4971465;28;20115;-77
2022/01/01 13:26:52;;;;;;;5.57;1.50;;;;;;;;;;4980121;28;20041;-76
2022/01/01 13:29:20;;;;;;;2.35;1.02;;;;;;;;;;4981652;28;20081;-77
2022/01/01 13:31:46;;;;;;;1.90;1.13;;;;;;;;;;4975718;28;20030;-76
2022/01/01 13:34:13;;;;;;;3.20;1.08;;;;;;;;;;4973653;28;20089;-78
2022/01/01 13:36:42;;;;;;;4.82;1.60;;;;;;;;;;4981042;28;20089;-77
2022/01/01 13:39:15;;;;;;;2.40;0.85;;;;;;;;;;4973132;28;20030;-77
2022/01/01 13:41:44;;;;;;;3.40;1.15;;;;;;;;;;4991181;28;20038;-77
2022/01/01 13:44:17;;;;;;;2.65;0.90;;;;;;;;;;4970685;28;20502;-78
2022/01/01 13:46:43;;;;;;;1.73;0.90;;;;;;;;;;4992198;28;20033;-76
2022/01/01 13:49:13;;;;;;;1.95;1.02;;;;;;;;;;4993053;28;20030;-75
2022/01/01 13:51:39;;;;;;;1.20;0.82;;;;;;;;;;4990040;28;20042;-75
2022/01/01 13:54:07;;;;;;;2.80;1.25;;;;;;;;;;4991358;28;20538;-76
2022/01/01 13:56:34;;;;;;;4.20;1.20;;;;;;;;;;4995254;28;20042;-75
2022/01/01 13:59:01;;;;;;;1.83;0.90;;;;;;;;;;4991213;28;20039;-75
2022/01/01 14:01:28;;;;;;;1.23;0.60;;;;;;;;;;4994856;28;20027;-75
2022/01/01 14:03:55;;;;;;;3.80;1.08;;;;;;;;;;4998097;28;20078;-74
2022/01/01 14:06:25;;;;;;;2.53;1.10;;;;;;;;;;4999586;28;20019;-74
2022/01/01 14:08:58;;;;;;;3.45;1.02;;;;;;;;;;4998608;28;20022;-78
2022/01/01 14:11:28;;;;;;;2.25;1.13;;;;;;;;;;4993652;28;20034;-75
2022/01/01 14:14:04;;;;;;;0.60;0.57;;;;;;;;;;4994956;28;20081;-76
2022/01/01 14:16:31;;;;;;;3.17;1.77;;;;;;;;;;4992375;28;20115;-76
2022/01/01 14:18:57;;;;;;;2.70;1.20;;;;;;;;;;4981113;28;21368;-75
2022/01/01 14:21:25;;;;;;;2.13;0.90;;;;;;;;;;4991763;28;20103;-75
2022/01/01 14:23:54;;;;;;;1.17;0.77;;;;;;;;;;4995897;28;20110;-74
2022/01/01 14:26:22;;;;;;;2.30;1.20;;;;;;;;;;4998434;28;20025;-75
2022/01/01 14:28:49;;;;;;;2.50;1.02;;;;;;;;;;4980848;28;20046;-74
2022/01/01 14:31:16;;;;;;;5.10;1.27;;;;;;;;;;4998864;28;20042;-74
2022/01/01 14:33:42;;;;;;;1.87;0.87;;;;;;;;;;4981623;28;20023;-74
2022/01/01 14:36:12;;;;;;;1.93;1.00;;;;;;;;;;4996852;28;20268;-74
2022/01/01 14:38:39;;;;;;;1.50;0.90;;;;;;;;;;4989710;28;20054;-77
2022/01/01 14:41:06;;;;;;;2.10;0.73;;;;;;;;;;4996102;28;20034;-77
2022/01/01 14:43:32;;;;;;;1.95;1.20;;;;;;;;;;4997931;28;20034;-77
2022/01/01 14:46:02;;;;;;;5.00;1.50;;;;;;;;;;4975775;28;20274;-76
2022/01/01 14:48:37;;;;;;;1.67;0.90;;;;;;;;;;4991063;28;20045;-74
2022/01/01 14:51:22;;;;;;;3.77;1.30;;;;;;;;;;4990885;28;20522;-77